Terminal Aerodrome Forecast
Issued by NWS Austin/San Antonio, TX

Home | Current Version | Previous Version | Text Only | Print | Product List | Glossary On
Versions: 1 2 3 4 5 6 7 8 9 10 11 12 13 14 15 16 17 18 19 20 21 22
000
FTUS44 KEWX 010500 RRA
TAFAUS
TAF
KAUS 010541Z 0106/0212 19007KT P6SM BKN010 OVC035
     FM010800 19007KT 3SM BR OVC008
      TEMPO 0111/0115 1/2SM FG OVC004
     FM011600 24009KT 5SM SHRA BR OVC010
     FM011900 34013KT P6SM OVC050
     FM012200 01017G27KT P6SM BKN100=

USA.gov is the U.S. government's official web portal to all federal, state and local government web resources and services.